sensor_id;sensor_type;location;lat;lon;timestamp;P1;durP1;ratioP1;P2;durP2;ratioP2
6031;SDS011;3044;43.232;27.972;2023-07-13T07:47:33;11.43;;;6.23;;
6031;SDS011;3044;43.232;27.972;2023-07-13T07:50:00;13.30;;;6.57;;
6031;SDS011;3044;43.232;27.972;2023-07-13T07:52:27;20.50;;;8.00;;
6031;SDS011;3044;43.232;27.972;2023-07-13T07:54:55;13.73;;;7.03;;
6031;SDS011;3044;43.232;27.972;2023-07-13T07:57:22;11.50;;;7.03;;
6031;SDS011;3044;43.232;27.972;2023-07-13T07:59:49;18.70;;;7.43;;
6031;SDS011;3044;43.232;27.972;2023-07-13T08:02:16;8.10;;;7.30;;
6031;SDS011;3044;43.232;27.972;2023-07-13T08:04:45;11.50;;;7.40;;
6031;SDS011;3044;43.232;27.972;2023-07-13T08:41:31;18.87;;;13.23;;
6031;SDS011;3044;43.232;27.972;2023-07-13T08:43:59;29.47;;;14.97;;
6031;SDS011;3044;43.232;27.972;2023-07-13T08:46:30;11.67;;;8.83;;
6031;SDS011;3044;43.232;27.972;2023-07-13T08:49:03;16.23;;;9.27;;
6031;SDS011;3044;43.232;27.972;2023-07-13T08:51:38;12.17;;;9.27;;
6031;SDS011;3044;43.232;27.972;2023-07-13T08:54:16;12.60;;;9.77;;
6031;SDS011;3044;43.232;27.972;2023-07-13T08:56:49;12.03;;;9.47;;
6031;SDS011;3044;43.232;27.972;2023-07-13T08:59:19;10.07;;;8.53;;
6031;SDS011;3044;43.232;27.972;2023-07-13T09:04:42;12.00;;;8.50;;
6031;SDS011;3044;43.232;27.972;2023-07-13T09:07:18;9.50;;;8.63;;
6031;SDS011;3044;43.232;27.972;2023-07-13T09:09:59;16.43;;;8.63;;
6031;SDS011;3044;43.232;27.972;2023-07-13T09:12:39;10.77;;;9.63;;
6031;SDS011;3044;43.232;27.972;2023-07-13T09:15:17;10.60;;;9.40;;
6031;SDS011;3044;43.232;27.972;2023-07-13T09:17:51;9.57;;;8.27;;
6031;SDS011;3044;43.232;27.972;2023-07-13T09:20:22;19.30;;;10.40;;
6031;SDS011;3044;43.232;27.972;2023-07-13T09:22:52;15.17;;;10.87;;
6031;SDS011;3044;43.232;27.972;2023-07-13T09:25:24;13.87;;;11.60;;
6031;SDS011;3044;43.232;27.972;2023-07-13T09:27:58;14.17;;;10.13;;
6031;SDS011;3044;43.232;27.972;2023-07-13T09:30:33;13.73;;;10.43;;
6031;SDS011;3044;43.232;27.972;2023-07-13T09:33:09;11.60;;;10.47;;
6031;SDS011;3044;43.232;27.972;2023-07-13T09:35:36;17.70;;;10.67;;
6031;SDS011;3044;43.232;27.972;2023-07-13T09:38:10;11.83;;;10.73;;
6031;SDS011;3044;43.232;27.972;2023-07-13T09:40:46;18.67;;;11.00;;
6031;SDS011;3044;43.232;27.972;2023-07-13T09:43:25;12.90;;;10.20;;
6031;SDS011;3044;43.232;27.972;2023-07-13T09:45:53;18.33;;;10.97;;
6031;SDS011;3044;43.232;27.972;2023-07-13T09:48:21;34.37;;;12.90;;
6031;SDS011;3044;43.232;27.972;2023-07-13T09:50:49;20.23;;;12.63;;
6031;SDS011;3044;43.232;27.972;2023-07-13T09:53:22;16.70;;;13.17;;
6031;SDS011;3044;43.232;27.972;2023-07-13T09:55:49;30.63;;;14.47;;
6031;SDS011;3044;43.232;27.972;2023-07-13T09:58:17;38.53;;;12.93;;
6031;SDS011;3044;43.232;27.972;2023-07-13T10:00:55;18.20;;;9.70;;
6031;SDS011;3044;43.232;27.972;2023-07-13T10:03:25;11.33;;;10.10;;
6031;SDS011;3044;43.232;27.972;2023-07-13T10:05:53;19.47;;;11.20;;
6031;SDS011;3044;43.232;27.972;2023-07-13T10:08:23;97.80;;;16.27;;
6031;SDS011;3044;43.232;27.972;2023-07-13T10:10:53;16.80;;;10.43;;
6031;SDS011;3044;43.232;27.972;2023-07-13T10:13:32;21.47;;;11.90;;
6031;SDS011;3044;43.232;27.972;2023-07-13T10:16:04;16.43;;;10.33;;
6031;SDS011;3044;43.232;27.972;2023-07-13T10:18:35;12.27;;;10.67;;
6031;SDS011;3044;43.232;27.972;2023-07-13T10:21:11;21.07;;;11.23;;
6031;SDS011;3044;43.232;27.972;2023-07-13T10:23:40;17.77;;;11.07;;
6031;SDS011;3044;43.232;27.972;2023-07-13T10:26:14;11.30;;;10.13;;
6031;SDS011;3044;43.232;27.972;2023-07-13T10:28:45;17.30;;;10.80;;
6031;SDS011;3044;43.232;27.972;2023-07-13T10:31:19;15.37;;;10.87;;
6031;SDS011;3044;43.232;27.972;2023-07-13T10:33:47;11.90;;;10.33;;
6031;SDS011;3044;43.232;27.972;2023-07-13T10:36:16;11.57;;;10.37;;
6031;SDS011;3044;43.232;27.972;2023-07-13T10:38:50;11.07;;;10.00;;
6031;SDS011;3044;43.232;27.972;2023-07-13T10:41:20;12.37;;;10.13;;
6031;SDS011;3044;43.232;27.972;2023-07-13T10:43:50;12.30;;;11.10;;
6031;SDS011;3044;43.232;27.972;2023-07-13T10:46:22;12.53;;;11.33;;
6031;SDS011;3044;43.232;27.972;2023-07-13T10:48:52;12.93;;;10.90;;
6031;SDS011;3044;43.232;27.972;2023-07-13T10:51:22;17.13;;;10.97;;
6031;SDS011;3044;43.232;27.972;2023-07-13T10:56:40;11.93;;;10.70;;
6031;SDS011;3044;43.232;27.972;2023-07-13T10:59:10;12.90;;;10.87;;
6031;SDS011;3044;43.232;27.972;2023-07-13T11:01:46;15.63;;;10.57;;
6031;SDS011;3044;43.232;27.972;2023-07-13T11:04:17;12.67;;;10.83;;
6031;SDS011;3044;43.232;27.972;2023-07-13T11:06:48;12.57;;;11.00;;
6031;SDS011;3044;43.232;27.972;2023-07-13T11:09:19;13.60;;;9.53;;
6031;SDS011;3044;43.232;27.972;2023-07-13T11:12:02;11.53;;;10.33;;
6031;SDS011;3044;43.232;27.972;2023-07-13T11:14:35;12.70;;;10.37;;
6031;SDS011;3044;43.232;27.972;2023-07-13T11:20:09;18.83;;;11.37;;
6031;SDS011;3044;43.232;27.972;2023-07-13T11:22:47;10.93;;;9.83;;
6031;SDS011;3044;43.232;27.972;2023-07-13T11:25:27;12.40;;;11.17;;
6031;SDS011;3044;43.232;27.972;2023-07-13T11:28:14;13.23;;;10.60;;
6031;SDS011;3044;43.232;27.972;2023-07-13T11:30:45;12.97;;;11.77;;
6031;SDS011;3044;43.232;27.972;2023-07-13T11:33:17;19.63;;;10.93;;
6031;SDS011;3044;43.232;27.972;2023-07-13T11:35:48;12.23;;;10.33;;
6031;SDS011;3044;43.232;27.972;2023-07-13T11:38:20;14.80;;;11.00;;
6031;SDS011;3044;43.232;27.972;2023-07-13T11:40:50;11.50;;;10.40;;
6031;SDS011;3044;43.232;27.972;2023-07-13T11:43:20;17.80;;;11.87;;
6031;SDS011;3044;43.232;27.972;2023-07-13T11:45:49;22.17;;;11.60;;
6031;SDS011;3044;43.232;27.972;2023-07-13T11:48:23;13.70;;;10.90;;
6031;SDS011;3044;43.232;27.972;2023-07-13T11:50:57;13.33;;;11.93;;
6031;SDS011;3044;43.232;27.972;2023-07-13T11:53:29;12.77;;;11.43;;
6031;SDS011;3044;43.232;27.972;2023-07-13T11:56:02;13.43;;;11.20;;
6031;SDS011;3044;43.232;27.972;2023-07-13T11:58:29;23.67;;;11.83;;
6031;SDS011;3044;43.232;27.972;2023-07-13T12:00:58;15.40;;;12.50;;
6031;SDS011;3044;43.232;27.972;2023-07-13T12:03:31;14.70;;;10.87;;
6031;SDS011;3044;43.232;27.972;2023-07-13T12:06:00;12.63;;;11.00;;
6031;SDS011;3044;43.232;27.972;2023-07-13T12:08:30;12.40;;;11.10;;
6031;SDS011;3044;43.232;27.972;2023-07-13T12:11:05;15.67;;;10.90;;
6031;SDS011;3044;43.232;27.972;2023-07-13T12:13:41;11.53;;;10.43;;
6031;SDS011;3044;43.232;27.972;2023-07-13T12:16:11;21.97;;;12.17;;
6031;SDS011;3044;43.232;27.972;2023-07-13T12:18:42;26.20;;;11.93;;
6031;SDS011;3044;43.232;27.972;2023-07-13T12:21:14;35.93;;;12.67;;
6031;SDS011;3044;43.232;27.972;2023-07-13T12:23:44;14.27;;;12.00;;
6031;SDS011;3044;43.232;27.972;2023-07-13T12:26:15;21.23;;;12.10;;
6031;SDS011;3044;43.232;27.972;2023-07-13T12:28:44;32.73;;;12.17;;
6031;SDS011;3044;43.232;27.972;2023-07-13T12:31:29;15.90;;;12.83;;
6031;SDS011;3044;43.232;27.972;2023-07-13T12:34:00;13.07;;;10.70;;
6031;SDS011;3044;43.232;27.972;2023-07-13T12:36:30;13.60;;;12.17;;
6031;SDS011;3044;43.232;27.972;2023-07-13T12:39:00;15.70;;;11.10;;
6031;SDS011;3044;43.232;27.972;2023-07-13T12:41:38;11.63;;;10.43;;
6031;SDS011;3044;43.232;27.972;2023-07-13T12:44:08;11.83;;;10.67;;
6031;SDS011;3044;43.232;27.972;2023-07-13T12:46:38;11.70;;;10.50;;
6031;SDS011;3044;43.232;27.972;2023-07-13T12:49:07;19.13;;;11.10;;
6031;SDS011;3044;43.232;27.972;2023-07-13T12:51:35;16.83;;;10.00;;
6031;SDS011;3044;43.232;27.972;2023-07-13T12:54:12;18.67;;;10.87;;
6031;SDS011;3044;43.232;27.972;2023-07-13T12:56:42;24.70;;;10.60;;
6031;SDS011;3044;43.232;27.972;2023-07-13T12:59:14;11.97;;;10.67;;
6031;SDS011;3044;43.232;27.972;2023-07-13T13:01:45;12.47;;;9.50;;
6031;SDS011;3044;43.232;27.972;2023-07-13T13:04:17;13.23;;;11.23;;
6031;SDS011;3044;43.232;27.972;2023-07-13T13:06:46;11.37;;;10.37;;
6031;SDS011;3044;43.232;27.972;2023-07-13T13:09:14;19.93;;;11.20;;
6031;SDS011;3044;43.232;27.972;2023-07-13T13:11:43;11.40;;;10.20;;
6031;SDS011;3044;43.232;27.972;2023-07-13T13:14:10;11.40;;;10.23;;
6031;SDS011;3044;43.232;27.972;2023-07-13T13:16:42;14.00;;;10.77;;
6031;SDS011;3044;43.232;27.972;2023-07-13T13:19:14;14.60;;;11.30;;
6031;SDS011;3044;43.232;27.972;2023-07-13T13:21:45;36.27;;;12.87;;
6031;SDS011;3044;43.232;27.972;2023-07-13T13:24:13;17.30;;;11.30;;
6031;SDS011;3044;43.232;27.972;2023-07-13T13:26:42;15.33;;;11.10;;
6031;SDS011;3044;43.232;27.972;2023-07-13T13:29:14;13.30;;;11.17;;
6031;SDS011;3044;43.232;27.972;2023-07-13T13:31:43;12.73;;;11.33;;
6031;SDS011;3044;43.232;27.972;2023-07-13T13:34:10;12.53;;;10.77;;
6031;SDS011;3044;43.232;27.972;2023-07-13T13:36:39;16.10;;;12.10;;
6031;SDS011;3044;43.232;27.972;2023-07-13T13:39:15;12.93;;;11.37;;
6031;SDS011;3044;43.232;27.972;2023-07-13T13:41:46;17.63;;;12.33;;
6031;SDS011;3044;43.232;27.972;2023-07-13T13:44:14;13.43;;;11.37;;
6031;SDS011;3044;43.232;27.972;2023-07-13T13:46:43;20.40;;;10.40;;
6031;SDS011;3044;43.232;27.972;2023-07-13T13:49:13;22.47;;;11.50;;
6031;SDS011;3044;43.232;27.972;2023-07-13T13:51:43;12.37;;;11.17;;
6031;SDS011;3044;43.232;27.972;2023-07-13T13:54:11;15.43;;;11.80;;
6031;SDS011;3044;43.232;27.972;2023-07-13T13:56:41;12.37;;;10.70;;
6031;SDS011;3044;43.232;27.972;2023-07-13T13:59:09;19.03;;;11.60;;
6031;SDS011;3044;43.232;27.972;2023-07-13T14:01:36;15.37;;;11.50;;
6031;SDS011;3044;43.232;27.972;2023-07-13T14:04:05;12.40;;;11.00;;
6031;SDS011;3044;43.232;27.972;2023-07-13T14:06:33;24.93;;;13.37;;
6031;SDS011;3044;43.232;27.972;2023-07-13T14:09:00;20.90;;;12.20;;
6031;SDS011;3044;43.232;27.972;2023-07-13T14:11:29;12.40;;;11.10;;
6031;SDS011;3044;43.232;27.972;2023-07-13T14:13:58;13.33;;;12.10;;
6031;SDS011;3044;43.232;27.972;2023-07-13T14:16:29;16.53;;;11.97;;
6031;SDS011;3044;43.232;27.972;2023-07-13T14:18:58;12.80;;;11.50;;
6031;SDS011;3044;43.232;27.972;2023-07-13T14:21:26;12.33;;;11.23;;
6031;SDS011;3044;43.232;27.972;2023-07-13T14:23:55;14.57;;;10.70;;
6031;SDS011;3044;43.232;27.972;2023-07-13T14:26:23;13.93;;;11.60;;
6031;SDS011;3044;43.232;27.972;2023-07-13T14:28:54;16.17;;;12.00;;
6031;SDS011;3044;43.232;27.972;2023-07-13T14:31:24;14.60;;;12.73;;
6031;SDS011;3044;43.232;27.972;2023-07-13T14:33:54;13.50;;;10.60;;
6031;SDS011;3044;43.232;27.972;2023-07-13T14:36:23;13.87;;;12.27;;
6031;SDS011;3044;43.232;27.972;2023-07-13T14:38:54;13.47;;;12.07;;
6031;SDS011;3044;43.232;27.972;2023-07-13T14:41:22;13.53;;;12.13;;
6031;SDS011;3044;43.232;27.972;2023-07-13T14:43:49;19.43;;;12.10;;
6031;SDS011;3044;43.232;27.972;2023-07-13T14:46:22;24.17;;;11.50;;
6031;SDS011;3044;43.232;27.972;2023-07-13T14:48:59;13.80;;;12.40;;
6031;SDS011;3044;43.232;27.972;2023-07-13T14:51:29;16.67;;;11.40;;
6031;SDS011;3044;43.232;27.972;2023-07-13T14:53:58;15.00;;;11.37;;
6031;SDS011;3044;43.232;27.972;2023-07-13T15:29:51;17.83;;;13.53;;
6031;SDS011;3044;43.232;27.972;2023-07-13T15:32:18;20.00;;;14.33;;
6031;SDS011;3044;43.232;27.972;2023-07-13T15:34:45;15.33;;;13.67;;
